Time;durP1;ratioP1;P1;durP2;ratioP2;P2;SDS_P1;SDS_P2;PMS_P1;PMS_P2;Temp;Humidity;BMP_temperature;BMP_pressure;BME280_temperature;BME280_humidity;BME280_pressure;Samples;Min_cycle;Max_cycle;Signal;HPM_P1;HPM_P2
2022/05/12 00:01:44;;;;;;;;;3.33;3.33;;;;;;;;5080291;27;45372;-78
2022/05/12 00:04:10;;;;;;;;;3.00;3.00;;;;;;;;5060940;27;45233;-81
2022/05/12 00:06:36;;;;;;;;;3.33;3.33;;;;;;;;5060113;28;47707;-79
2022/05/12 00:09:01;;;;;;;;;3.67;2.67;;;;;;;;5059736;28;45338;-79
2022/05/12 00:11:26;;;;;;;;;3.67;3.00;;;;;;;;5059809;28;45404;-79
2022/05/12 00:13:51;;;;;;;;;3.67;1.67;;;;;;;;5060214;28;45305;-80
2022/05/12 00:16:17;;;;;;;;;7.00;3.00;;;;;;;;5059840;28;46486;-82
2022/05/12 00:18:42;;;;;;;;;8.67;3.67;;;;;;;;5059937;28;45332;-81
2022/05/12 00:21:07;;;;;;;;;5.00;4.67;;;;;;;;5059991;28;45297;-82
2022/05/12 00:23:32;;;;;;;;;11.33;6.00;;;;;;;;5059765;28;45367;-80
2022/05/12 00:25:58;;;;;;;;;7.33;4.00;;;;;;;;5059390;28;47551;-80
2022/05/12 00:28:24;;;;;;;;;5.00;3.67;;;;;;;;5059440;28;45366;-80
2022/05/12 00:30:50;;;;;;;;;6.00;4.67;;;;;;;;5059633;28;45258;-79
2022/05/12 00:33:20;;;;;;;;;6.00;3.67;;;;;;;;5073667;28;45697;-80
2022/05/12 00:35:46;;;;;;;;;3.67;3.67;;;;;;;;5078711;27;46637;-80
2022/05/12 00:38:12;;;;;;;;;3.00;3.00;;;;;;;;5070669;27;45410;-80
2022/05/12 00:40:38;;;;;;;;;6.67;3.67;;;;;;;;5070695;28;45485;-79
2022/05/12 00:43:05;;;;;;;;;6.33;5.33;;;;;;;;5079333;27;45267;-82
2022/05/12 00:45:35;;;;;;;;;5.33;5.00;;;;;;;;5079102;27;45745;-81
2022/05/12 00:48:00;;;;;;;;;8.00;5.67;;;;;;;;5077787;28;45660;-80
2022/05/12 00:50:30;;;;;;;;;8.33;5.33;;;;;;;;5078967;27;45419;-79
2022/05/12 00:52:58;;;;;;;;;5.67;4.33;;;;;;;;5074427;27;45267;-82
2022/05/12 00:55:26;;;;;;;;;5.00;5.00;;;;;;;;5079201;27;45509;-80
2022/05/12 00:57:54;;;;;;;;;3.67;3.67;;;;;;;;5079338;27;45359;-77
2022/05/12 01:00:20;;;;;;;;;7.33;6.00;;;;;;;;5078944;27;45363;-80
2022/05/12 01:02:46;;;;;;;;;6.67;5.00;;;;;;;;5079204;27;45280;-78
2022/05/12 01:05:12;;;;;;;;;6.33;3.67;;;;;;;;5072245;27;45466;-80
2022/05/12 01:07:38;;;;;;;;;10.33;8.00;;;;;;;;5078211;27;45215;-79
2022/05/12 01:10:04;;;;;;;;;6.33;5.33;;;;;;;;5077670;27;45369;-82
2022/05/12 01:12:30;;;;;;;;;5.33;5.33;;;;;;;;5078963;27;45352;-78
2022/05/12 01:14:56;;;;;;;;;7.00;5.33;;;;;;;;5078603;28;45363;-80
2022/05/12 01:17:23;;;;;;;;;5.50;4.00;;;;;;;;5072322;27;45406;-83
2022/05/12 01:19:51;;;;;;;;;10.33;7.67;;;;;;;;5058371;28;45483;-82
2022/05/12 01:22:42;;;;;;;;;6.33;4.00;;;;;;;;5058977;28;45269;-83
2022/05/12 01:25:08;;;;;;;;;6.67;6.67;;;;;;;;5042646;28;46288;-82
2022/05/12 01:27:34;;;;;;;;;5.33;5.33;;;;;;;;5056175;28;45387;-81
2022/05/12 01:29:59;;;;;;;;;6.33;6.33;;;;;;;;5056498;28;45280;-79
2022/05/12 01:32:27;;;;;;;;;7.00;4.00;;;;;;;;5056311;28;45544;-78
2022/05/12 01:34:53;;;;;;;;;6.00;5.00;;;;;;;;5037695;28;46724;-82
2022/05/12 01:37:19;;;;;;;;;8.00;6.00;;;;;;;;5035965;28;45726;-80
2022/05/12 01:39:44;;;;;;;;;9.33;6.33;;;;;;;;5036332;28;45685;-80
2022/05/12 01:42:10;;;;;;;;;10.33;5.67;;;;;;;;5038246;28;45631;-81
2022/05/12 01:44:35;;;;;;;;;5.67;5.33;;;;;;;;5056297;28;46395;-83
2022/05/12 01:47:00;;;;;;;;;8.00;6.33;;;;;;;;5056187;28;45380;-80
2022/05/12 01:49:26;;;;;;;;;8.00;5.67;;;;;;;;5056342;28;45456;-78
2022/05/12 01:51:52;;;;;;;;;8.00;7.00;;;;;;;;5056797;28;45405;-79
2022/05/12 01:54:17;;;;;;;;;10.00;7.00;;;;;;;;5055456;28;46176;-80
2022/05/12 01:56:42;;;;;;;;;7.00;5.00;;;;;;;;5055982;28;45363;-79
2022/05/12 01:59:07;;;;;;;;;8.33;6.00;;;;;;;;5056387;28;45454;-79
2022/05/12 02:01:33;;;;;;;;;8.33;6.67;;;;;;;;5057341;28;45314;-82
2022/05/12 02:03:58;;;;;;;;;6.00;6.00;;;;;;;;5070337;28;47218;-79
2022/05/12 02:06:23;;;;;;;;;7.00;5.33;;;;;;;;5078104;27;45288;-80
2022/05/12 02:08:48;;;;;;;;;6.00;5.00;;;;;;;;5061753;28;45545;-79
2022/05/12 02:11:14;;;;;;;;;8.00;6.33;;;;;;;;5058274;28;45367;-79
2022/05/12 02:13:39;;;;;;;;;8.33;8.33;;;;;;;;5058110;28;45999;-81
2022/05/12 02:16:04;;;;;;;;;4.67;4.67;;;;;;;;5058172;28;45271;-78
2022/05/12 02:18:30;;;;;;;;;9.67;7.00;;;;;;;;5072302;28;45265;-83
2022/05/12 02:20:56;;;;;;;;;11.00;7.00;;;;;;;;5078371;27;45323;-79
2022/05/12 02:23:21;;;;;;;;;11.33;8.00;;;;;;;;5078006;28;45677;-80
2022/05/12 02:25:47;;;;;;;;;8.33;8.00;;;;;;;;5077977;27;45356;-82
2022/05/12 02:28:12;;;;;;;;;10.33;8.00;;;;;;;;5077110;27;45454;-80
2022/05/12 02:30:37;;;;;;;;;9.00;6.00;;;;;;;;5069444;27;45461;-80
2022/05/12 02:33:03;;;;;;;;;9.00;7.67;;;;;;;;5058109;28;45281;-78
2022/05/12 02:35:29;;;;;;;;;7.00;6.67;;;;;;;;5057585;28;45381;-81
2022/05/12 02:37:54;;;;;;;;;9.33;7.33;;;;;;;;5057728;28;45522;-82
2022/05/12 02:40:21;;;;;;;;;10.67;6.00;;;;;;;;5058148;28;45395;-82
2022/05/12 02:42:46;;;;;;;;;12.00;7.67;;;;;;;;5067444;28;47267;-81
2022/05/12 02:45:12;;;;;;;;;11.00;8.67;;;;;;;;5077488;28;45332;-82
2022/05/12 02:47:37;;;;;;;;;9.00;7.00;;;;;;;;5076522;27;45422;-82
2022/05/12 02:50:03;;;;;;;;;6.00;6.00;;;;;;;;5076519;28;45290;-83
2022/05/12 02:52:28;;;;;;;;;10.33;9.00;;;;;;;;5076548;28;46328;-80
2022/05/12 02:54:54;;;;;;;;;9.33;8.33;;;;;;;;5077421;27;45557;-81
2022/05/12 02:57:19;;;;;;;;;7.67;7.67;;;;;;;;5077628;27;45427;-80
2022/05/12 02:59:44;;;;;;;;;10.33;7.33;;;;;;;;5077023;28;45418;-79
2022/05/12 03:02:09;;;;;;;;;9.67;7.00;;;;;;;;5077082;27;47446;-81
2022/05/12 03:04:35;;;;;;;;;8.33;8.33;;;;;;;;5077223;27;45316;-79
2022/05/12 03:07:00;;;;;;;;;14.67;9.33;;;;;;;;5077430;27;45336;-79
2022/05/12 03:09:25;;;;;;;;;16.67;8.33;;;;;;;;5077532;28;45335;-78
2022/05/12 03:11:50;;;;;;;;;12.33;7.67;;;;;;;;5077170;28;46491;-80
2022/05/12 03:14:16;;;;;;;;;9.67;7.00;;;;;;;;5077359;28;45419;-80
2022/05/12 03:16:42;;;;;;;;;11.00;8.00;;;;;;;;5076902;28;45302;-80
2022/05/12 03:19:07;;;;;;;;;9.33;6.00;;;;;;;;5078292;27;45520;-82
2022/05/12 03:21:32;;;;;;;;;9.00;7.00;;;;;;;;5077373;27;47225;-77
2022/05/12 03:23:58;;;;;;;;;13.67;6.33;;;;;;;;5077186;27;45440;-79
2022/05/12 03:26:23;;;;;;;;;13.67;8.67;;;;;;;;5077313;27;45453;-79
2022/05/12 03:28:48;;;;;;;;;10.67;9.00;;;;;;;;5077760;27;45463;-80
2022/05/12 03:31:14;;;;;;;;;13.00;9.67;;;;;;;;5077146;27;46457;-79
2022/05/12 03:33:39;;;;;;;;;8.33;7.00;;;;;;;;5077016;27;45354;-78
2022/05/12 03:36:06;;;;;;;;;11.00;9.33;;;;;;;;5075276;27;45385;-80
2022/05/12 03:38:32;;;;;;;;;10.33;7.67;;;;;;;;5057958;27;45622;-81
2022/05/12 03:40:57;;;;;;;;;7.33;7.00;;;;;;;;5057078;28;46289;-80
2022/05/12 03:46:06;;;;;;;;;10.33;9.67;;;;;;;;5060375;28;45530;-80
2022/05/12 03:48:32;;;;;;;;;12.00;9.00;;;;;;;;5060451;28;45250;-81
2022/05/12 03:50:57;;;;;;;;;35.67;31.33;;;;;;;;5059895;28;45418;-82
2022/05/12 03:53:24;;;;;;;;;10.00;9.67;;;;;;;;5061188;28;45242;-82
2022/05/12 03:55:49;;;;;;;;;11.33;8.00;;;;;;;;5060852;28;45286;-80
2022/05/12 03:58:15;;;;;;;;;8.00;8.00;;;;;;;;5073496;28;45473;-84
2022/05/12 04:00:40;;;;;;;;;11.67;9.00;;;;;;;;5080019;27;46378;-84
2022/05/12 04:03:06;;;;;;;;;9.67;8.67;;;;;;;;5079732;28;45292;-83
2022/05/12 04:05:32;;;;;;;;;12.33;9.33;;;;;;;;5079990;27;45444;-79
2022/05/12 04:07:57;;;;;;;;;11.00;11.00;;;;;;;;5079926;27;46672;-83
2022/05/12 04:10:24;;;;;;;;;11.00;9.00;;;;;;;;5073729;27;45598;-83
2022/05/12 04:12:50;;;;;;;;;9.67;9.67;;;;;;;;5079884;27;45513;-82
2022/05/12 04:15:15;;;;;;;;;10.00;10.00;;;;;;;;5079878;27;45308;-81
2022/05/12 04:17:41;;;;;;;;;8.67;7.67;;;;;;;;5079923;27;45457;-81
2022/05/12 04:20:09;;;;;;;;;15.33;14.00;;;;;;;;5079393;27;47029;-82
2022/05/12 04:22:34;;;;;;;;;11.33;7.33;;;;;;;;5079364;27;45158;-82
2022/05/12 04:24:59;;;;;;;;;13.33;6.33;;;;;;;;5076620;27;45433;-82
2022/05/12 04:27:25;;;;;;;;;8.67;8.67;;;;;;;;5066630;27;45249;-81
2022/05/12 04:29:50;;;;;;;;;12.33;9.67;;;;;;;;5072806;27;47477;-83
2022/05/12 04:32:15;;;;;;;;;17.33;13.00;;;;;;;;5079505;27;45421;-82
2022/05/12 04:37:26;;;;;;;;;11.00;9.00;;;;;;;;5059269;28;45256;-83
2022/05/12 04:39:51;;;;;;;;;7.67;7.33;;;;;;;;5059027;28;46415;-79
2022/05/12 04:42:16;;;;;;;;;11.67;9.00;;;;;;;;5058418;28;45764;-82
2022/05/12 04:44:42;;;;;;;;;11.00;8.00;;;;;;;;5059108;28;45292;-83
2022/05/12 04:47:07;;;;;;;;;9.00;8.00;;;;;;;;5059073;28;45430;-81
2022/05/12 04:49:33;;;;;;;;;23.33;19.33;;;;;;;;5062181;28;45280;-83
2022/05/12 04:52:01;;;;;;;;;13.00;12.00;;;;;;;;5079203;28;45295;-83
2022/05/12 04:54:26;;;;;;;;;11.00;10.00;;;;;;;;5078231;27;45422;-81
2022/05/12 04:56:52;;;;;;;;;11.67;9.00;;;;;;;;5079044;27;45779;-81
2022/05/12 04:59:17;;;;;;;;;10.67;10.33;;;;;;;;5079048;27;45405;-84
2022/05/12 05:01:42;;;;;;;;;19.67;18.67;;;;;;;;5077458;27;45351;-81
2022/05/12 05:04:07;;;;;;;;;13.67;10.33;;;;;;;;5077012;28;45477;-81
2022/05/12 05:06:33;;;;;;;;;15.33;11.67;;;;;;;;5078950;27;45497;-81
2022/05/12 05:08:58;;;;;;;;;16.33;11.00;;;;;;;;5078552;27;46864;-84
2022/05/12 05:11:23;;;;;;;;;11.00;8.33;;;;;;;;5059909;28;45344;-82
2022/05/12 05:13:49;;;;;;;;;12.00;8.00;;;;;;;;5058784;28;45409;-80
2022/05/12 05:16:14;;;;;;;;;15.00;10.67;;;;;;;;5058746;28;45408;-80
2022/05/12 05:18:40;;;;;;;;;10.33;8.67;;;;;;;;5058290;28;45580;-82
2022/05/12 05:21:05;;;;;;;;;15.33;13.00;;;;;;;;5057482;28;45261;-82
2022/05/12 05:23:30;;;;;;;;;13.33;10.00;;;;;;;;5058606;28;45391;-80
2022/05/12 05:25:56;;;;;;;;;9.00;9.00;;;;;;;;5058246;28;45504;-80
2022/05/12 05:28:22;;;;;;;;;13.33;11.00;;;;;;;;5058086;28;46729;-77
2022/05/12 05:30:47;;;;;;;;;8.67;7.00;;;;;;;;5063843;28;45230;-79
2022/05/12 05:33:12;;;;;;;;;13.67;8.00;;;;;;;;5078270;27;45332;-79
2022/05/12 05:35:37;;;;;;;;;11.00;10.00;;;;;;;;5078728;28;45284;-75
2022/05/12 05:38:03;;;;;;;;;13.00;7.33;;;;;;;;5077762;28;46340;-78
2022/05/12 05:40:31;;;;;;;;;11.67;11.00;;;;;;;;5078471;27;45287;-78
2022/05/12 05:42:57;;;;;;;;;13.00;9.67;;;;;;;;5078432;27;45383;-82
2022/05/12 05:45:23;;;;;;;;;10.67;9.67;;;;;;;;5073151;27;45386;-80
2022/05/12 05:47:55;;;;;;;;;15.33;11.00;;;;;;;;5058067;28;45901;-76
2022/05/12 05:50:26;;;;;;;;;10.00;10.00;;;;;;;;5057432;28;45469;-76
2022/05/12 05:55:53;;;;;;;;;15.33;9.00;;;;;;;;5035163;28;45502;-76
2022/05/12 05:58:19;;;;;;;;;19.33;13.67;;;;;;;;5035065;28;47635;-74
2022/05/12 06:00:45;;;;;;;;;17.33;11.67;;;;;;;;5034928;28;45290;-74
2022/05/12 06:03:10;;;;;;;;;13.33;11.67;;;;;;;;5034877;28;45634;-74
2022/05/12 06:05:36;;;;;;;;;13.33;10.00;;;;;;;;5034839;28;45356;-78
2022/05/12 06:08:02;;;;;;;;;10.67;8.00;;;;;;;;5031456;28;46614;-78
2022/05/12 06:10:28;;;;;;;;;13.67;11.00;;;;;;;;5015559;28;45331;-79
2022/05/12 06:12:54;;;;;;;;;12.00;10.00;;;;;;;;5015288;28;45532;-78
2022/05/12 06:15:19;;;;;;;;;14.33;12.00;;;;;;;;5017024;28;45382;-79
2022/05/12 06:17:44;;;;;;;;;17.33;10.67;;;;;;;;5034371;28;47462;-77
2022/05/12 06:20:10;;;;;;;;;15.00;13.67;;;;;;;;5031019;28;45325;-77
2022/05/12 06:22:36;;;;;;;;;10.00;8.67;;;;;;;;5035283;28;45353;-79
2022/05/12 06:25:05;;;;;;;;;14.33;9.67;;;;;;;;5035312;28;45366;-78
2022/05/12 06:27:30;;;;;;;;;11.33;11.00;;;;;;;;5034900;28;45439;-78
2022/05/12 06:29:56;;;;;;;;;15.00;9.67;;;;;;;;5048173;28;45534;-77
2022/05/12 06:32:21;;;;;;;;;15.00;10.33;;;;;;;;5077409;27;45844;-78
2022/05/12 06:34:46;;;;;;;;;20.00;14.00;;;;;;;;5071253;28;45522;-79
2022/05/12 06:37:12;;;;;;;;;12.33;10.00;;;;;;;;5059980;27;46284;-78
2022/05/12 06:39:38;;;;;;;;;12.00;9.67;;;;;;;;5068752;28;45492;-77
2022/05/12 06:42:03;;;;;;;;;11.00;8.67;;;;;;;;5066223;28;45423;-79
2022/05/12 06:44:29;;;;;;;;;12.33;8.33;;;;;;;;5069047;27;45677;-75
2022/05/12 06:46:55;;;;;;;;;17.00;13.00;;;;;;;;5072964;28;45610;-77
2022/05/12 06:49:20;;;;;;;;;11.00;11.00;;;;;;;;5076876;28;45337;-76
2022/05/12 06:51:45;;;;;;;;;10.33;9.00;;;;;;;;5062280;27;45405;-78
2022/05/12 06:54:11;;;;;;;;;8.00;8.00;;;;;;;;5057452;28;45451;-76
2022/05/12 06:56:36;;;;;;;;;12.00;9.67;;;;;;;;5056476;28;45440;-76
2022/05/12 06:59:02;;;;;;;;;11.33;9.33;;;;;;;;5056788;28;45367;-75
2022/05/12 07:01:27;;;;;;;;;19.67;16.33;;;;;;;;5066319;28;45820;-75
2022/05/12 07:03:56;;;;;;;;;13.00;8.00;;;;;;;;5063138;27;45415;-76
2022/05/12 07:06:21;;;;;;;;;6.67;6.33;;;;;;;;5072808;27;46239;-77
2022/05/12 07:08:47;;;;;;;;;6.67;6.00;;;;;;;;5065832;27;45339;-78
2022/05/12 07:11:12;;;;;;;;;12.33;7.00;;;;;;;;5057158;28;45253;-77
2022/05/12 07:13:38;;;;;;;;;13.00;7.00;;;;;;;;5056893;28;45558;-79
2022/05/12 07:16:04;;;;;;;;;11.33;7.33;;;;;;;;5056269;28;46360;-78
2022/05/12 07:18:30;;;;;;;;;13.00;8.67;;;;;;;;5070930;28;45529;-79
2022/05/12 07:26:35;;;;;;;;;8.67;7.00;;;;;;;;5060065;28;45795;-79
2022/05/12 07:29:01;;;;;;;;;10.33;6.67;;;;;;;;5075727;28;45311;-80
2022/05/12 07:31:26;;;;;;;;;11.67;7.00;;;;;;;;5062070;27;45351;-80
2022/05/12 07:33:51;;;;;;;;;7.33;6.00;;;;;;;;5061153;28;45302;-79
2022/05/12 07:36:19;;;;;;;;;7.00;7.00;;;;;;;;5064392;28;45372;-82
2022/05/12 07:38:45;;;;;;;;;11.00;4.67;;;;;;;;5076141;28;45387;-79
2022/05/12 07:41:12;;;;;;;;;5.00;4.00;;;;;;;;5080897;27;45378;-80
2022/05/12 07:43:38;;;;;;;;;5.33;5.33;;;;;;;;5080799;27;45269;-81
2022/05/12 07:46:04;;;;;;;;;6.00;5.00;;;;;;;;5071204;27;46661;-79
2022/05/12 07:48:29;;;;;;;;;8.33;7.33;;;;;;;;5060006;28;45274;-78
2022/05/12 07:50:54;;;;;;;;;5.67;4.00;;;;;;;;5076592;28;45422;-81
2022/05/12 07:53:19;;;;;;;;;5.00;3.33;;;;;;;;5080739;27;45499;-78
2022/05/12 07:55:44;;;;;;;;;10.00;7.67;;;;;;;;5079999;27;45374;-82
2022/05/12 07:58:11;;;;;;;;;10.33;5.00;;;;;;;;5070799;27;45715;-79
2022/05/12 08:00:37;;;;;;;;;9.33;4.00;;;;;;;;5073325;27;45269;-80
2022/05/12 08:03:03;;;;;;;;;6.33;2.00;;;;;;;;5080357;27;45322;-79
2022/05/12 08:05:28;;;;;;;;;4.67;3.67;;;;;;;;5080458;27;45576;-80
2022/05/12 08:07:55;;;;;;;;;5.67;5.67;;;;;;;;5078110;27;45493;-80
2022/05/12 08:10:20;;;;;;;;;11.33;10.33;;;;;;;;5078227;27;45604;-79
2022/05/12 08:12:46;;;;;;;;;11.00;6.67;;;;;;;;5063904;27;45476;-80
2022/05/12 08:15:12;;;;;;;;;6.67;3.00;;;;;;;;5078188;27;47303;-80
2022/05/12 08:17:37;;;;;;;;;2.67;2.67;;;;;;;;5079338;27;45298;-79
2022/05/12 08:20:05;;;;;;;;;3.00;3.00;;;;;;;;5077307;27;45372;-81
2022/05/12 08:22:30;;;;;;;;;7.00;4.00;;;;;;;;5079883;27;45436;-79
2022/05/12 08:24:55;;;;;;;;;7.00;3.00;;;;;;;;5079261;27;45764;-79
2022/05/12 08:27:21;;;;;;;;;9.67;7.67;;;;;;;;5079807;27;45313;-81
2022/05/12 08:29:46;;;;;;;;;6.00;4.67;;;;;;;;5072639;27;45312;-82
2022/05/12 08:32:12;;;;;;;;;9.33;2.00;;;;;;;;5059013;28;45462;-79
2022/05/12 08:34:37;;;;;;;;;3.33;3.33;;;;;;;;5058914;28;45364;-76
2022/05/12 08:37:03;;;;;;;;;6.67;4.33;;;;;;;;5072272;28;45399;-79
2022/05/12 08:39:28;;;;;;;;;5.00;4.00;;;;;;;;5077901;27;45351;-80
2022/05/12 08:42:03;;;;;;;;;4.00;4.00;;;;;;;;5079482;27;45367;-79
2022/05/12 08:44:32;;;;;;;;;5.00;4.00;;;;;;;;5072814;27;46524;-78
2022/05/12 08:46:58;;;;;;;;;7.67;4.67;;;;;;;;5065743;28;45673;-79
2022/05/12 08:49:29;;;;;;;;;4.33;4.00;;;;;;;;5079608;27;45332;-82
2022/05/12 08:52:09;;;;;;;;;4.00;3.00;;;;;;;;5067348;27;45661;-85
2022/05/12 08:54:36;;;;;;;;;3.00;3.00;;;;;;;;5062147;28;46181;-81
2022/05/12 08:57:03;;;;;;;;;3.00;3.00;;;;;;;;5069081;27;45786;-80
2022/05/12 08:59:29;;;;;;;;;6.00;4.00;;;;;;;;5060014;28;45400;-78
2022/05/12 09:02:09;;;;;;;;;3.67;3.67;;;;;;;;5058638;28;45438;-78
2022/05/12 09:04:40;;;;;;;;;5.00;5.00;;;;;;;;5076091;28;46440;-76
2022/05/12 09:07:28;;;;;;;;;5.00;2.00;;;;;;;;5078391;28;45382;-78
2022/05/12 09:10:09;;;;;;;;;3.67;2.67;;;;;;;;5058312;28;45399;-77
2022/05/12 09:12:48;;;;;;;;;4.33;3.67;;;;;;;;5058806;28;45301;-78
2022/05/12 09:15:13;;;;;;;;;4.33;4.00;;;;;;;;5058077;28;47065;-78
2022/05/12 09:17:48;;;;;;;;;4.33;4.00;;;;;;;;5065883;28;45391;-77
2022/05/12 09:20:15;;;;;;;;;7.00;5.33;;;;;;;;5078822;27;45462;-78
2022/05/12 09:22:41;;;;;;;;;3.67;3.67;;;;;;;;5066816;27;45541;-77
2022/05/12 09:25:07;;;;;;;;;2.00;2.00;;;;;;;;5075070;27;46320;-77
2022/05/12 09:27:34;;;;;;;;;6.67;4.67;;;;;;;;5070068;27;45382;-78
2022/05/12 09:30:00;;;;;;;;;4.67;4.67;;;;;;;;5076094;27;45427;-76
2022/05/12 09:32:27;;;;;;;;;3.33;3.33;;;;;;;;5069855;28;45457;-77
2022/05/12 09:35:04;;;;;;;;;5.67;5.00;;;;;;;;5059240;28;46384;-71
2022/05/12 09:37:30;;;;;;;;;5.33;4.00;;;;;;;;5069732;27;46562;-78
2022/05/12 09:39:56;;;;;;;;;5.33;3.33;;;;;;;;5073646;27;45359;-78
2022/05/12 09:42:27;;;;;;;;;6.67;3.00;;;;;;;;5058117;28;45548;-78
2022/05/12 09:45:04;;;;;;;;;6.67;3.67;;;;;;;;5068933;28;45263;-78
2022/05/12 09:47:30;;;;;;;;;6.33;4.00;;;;;;;;5080788;27;45555;-76
2022/05/12 09:50:16;;;;;;;;;5.67;1.67;;;;;;;;5064043;27;45521;-78
2022/05/12 09:52:43;;;;;;;;;2.00;2.00;;;;;;;;5058186;28;45344;-78
2022/05/12 09:55:12;;;;;;;;;2.00;2.00;;;;;;;;5061387;28;47256;-79
2022/05/12 09:57:44;;;;;;;;;1.67;1.67;;;;;;;;5059569;28;45509;-77
2022/05/12 10:00:22;;;;;;;;;3.00;2.00;;;;;;;;5064032;28;45414;-77
2022/05/12 10:08:26;;;;;;;;;2.00;2.00;;;;;;;;5057364;28;45460;-77
2022/05/12 10:10:58;;;;;;;;;1.67;1.00;;;;;;;;5067001;28;46759;-75
2022/05/12 10:13:37;;;;;;;;;1.67;1.00;;;;;;;;5072817;27;45522;-77
2022/05/12 10:16:03;;;;;;;;;1.00;1.00;;;;;;;;5062111;28;45420;-75
2022/05/12 10:18:40;;;;;;;;;2.67;2.67;;;;;;;;5070871;27;45555;-72
2022/05/12 10:21:21;;;;;;;;;1.00;1.00;;;;;;;;5062748;27;45357;-69
2022/05/12 10:23:46;;;;;;;;;3.33;3.00;;;;;;;;5077974;27;45406;-72
2022/05/12 10:26:16;;;;;;;;;4.33;2.00;;;;;;;;5068641;27;47335;-71
2022/05/12 10:28:45;;;;;;;;;2.00;2.00;;;;;;;;5059258;28;45269;-71
2022/05/12 10:31:10;;;;;;;;;4.00;1.00;;;;;;;;5070389;27;45410;-72
2022/05/12 10:34:00;;;;;;;;;2.00;1.00;;;;;;;;5057417;28;45346;-79
2022/05/12 10:36:33;;;;;;;;;1.67;1.00;;;;;;;;5057055;28;47086;-74
2022/05/12 10:39:01;;;;;;;;;5.67;1.00;;;;;;;;5062341;28;45486;-76
2022/05/12 10:41:33;;;;;;;;;6.67;3.00;;;;;;;;5060219;28;45566;-74
2022/05/12 10:44:23;;;;;;;;;2.00;1.00;;;;;;;;5077656;27;45490;-77
2022/05/12 10:46:58;;;;;;;;;2.67;1.33;;;;;;;;5077371;27;45395;-77
2022/05/12 10:49:29;;;;;;;;;2.00;2.00;;;;;;;;5058956;27;45411;-76
2022/05/12 10:52:06;;;;;;;;;2.00;2.00;;;;;;;;5056967;28;45877;-76
2022/05/12 10:54:38;;;;;;;;;2.00;2.00;;;;;;;;5064610;28;45609;-77
2022/05/12 10:57:16;;;;;;;;;2.33;2.00;;;;;;;;5064038;28;46428;-80
2022/05/12 10:59:53;;;;;;;;;3.00;3.00;;;;;;;;5060419;28;45470;-76
2022/05/12 11:02:33;;;;;;;;;4.67;1.33;;;;;;;;5060399;28;45256;-82
2022/05/12 11:05:09;;;;;;;;;1.00;1.00;;;;;;;;5060882;28;45380;-76
2022/05/12 11:07:38;;;;;;;;;1.00;1.00;;;;;;;;5059991;28;45462;-74
2022/05/12 11:10:09;;;;;;;;;1.00;1.00;;;;;;;;5060531;28;45324;-74
2022/05/12 11:12:39;;;;;;;;;2.00;2.00;;;;;;;;5060408;28;45351;-74
2022/05/12 11:15:10;;;;;;;;;1.33;1.33;;;;;;;;5069497;28;45397;-76
2022/05/12 11:17:35;;;;;;;;;29.33;29.00;;;;;;;;5080308;27;45726;-75
2022/05/12 11:20:16;;;;;;;;;1.00;1.00;;;;;;;;5080636;27;45510;-74
2022/05/12 11:22:46;;;;;;;;;3.00;1.00;;;;;;;;5080666;27;45304;-74
2022/05/12 11:25:22;;;;;;;;;2.33;1.33;;;;;;;;5080599;27;45340;-76
2022/05/12 11:27:48;;;;;;;;;1.00;1.00;;;;;;;;5080314;27;45709;-75
2022/05/12 11:30:33;;;;;;;;;2.00;0.00;;;;;;;;5060852;27;45372;-75
2022/05/12 11:33:02;;;;;;;;;1.00;1.00;;;;;;;;5059913;28;45315;-74
2022/05/12 11:35:56;;;;;;;;;1.00;1.00;;;;;;;;5060300;28;45237;-76
2022/05/12 11:38:34;;;;;;;;;2.00;2.00;;;;;;;;5027054;28;45446;-74
2022/05/12 11:40:59;;;;;;;;;14.00;14.00;;;;;;;;5037786;28;45327;-74
2022/05/12 11:46:23;;;;;;;;;1.67;1.00;;;;;;;;5037871;28;45435;-74
2022/05/12 11:48:54;;;;;;;;;1.00;1.00;;;;;;;;5036289;28;46486;-75
2022/05/12 11:51:32;;;;;;;;;1.33;1.33;;;;;;;;5037456;28;46378;-74
2022/05/12 11:54:00;;;;;;;;;0.00;0.00;;;;;;;;5038155;28;45427;-74
2022/05/12 11:56:35;;;;;;;;;3.00;3.00;;;;;;;;5037454;28;45547;-75
2022/05/12 11:59:16;;;;;;;;;1.00;1.00;;;;;;;;5037132;28;47526;-79
2022/05/12 12:01:41;;;;;;;;;0.33;0.33;;;;;;;;5036780;28;45424;-76
2022/05/12 12:04:12;;;;;;;;;1.00;1.00;;;;;;;;5036850;28;45394;-76
2022/05/12 12:06:37;;;;;;;;;1.00;1.00;;;;;;;;5037510;28;45519;-75
2022/05/12 12:09:21;;;;;;;;;2.67;2.67;;;;;;;;5037394;28;46027;-76
2022/05/12 12:11:46;;;;;;;;;4.00;1.00;;;;;;;;5037302;28;45370;-74
2022/05/12 12:14:31;;;;;;;;;0.67;0.67;;;;;;;;5043271;28;45391;-81
2022/05/12 12:17:02;;;;;;;;;1.00;1.00;;;;;;;;5060062;28;45232;-75
2022/05/12 12:19:41;;;;;;;;;3.33;2.00;;;;;;;;5063977;28;45295;-74
2022/05/12 12:22:25;;;;;;;;;2.00;1.33;;;;;;;;5059474;28;45270;-72
2022/05/12 12:24:59;;;;;;;;;1.00;1.00;;;;;;;;5059481;28;45424;-76
2022/05/12 12:27:46;;;;;;;;;1.00;1.00;;;;;;;;5061255;28;45303;-78
2022/05/12 12:30:27;;;;;;;;;2.00;2.00;;;;;;;;5079148;27;46209;-73
2022/05/12 12:33:09;;;;;;;;;1.00;1.00;;;;;;;;5079199;27;45367;-76
2022/05/12 12:35:53;;;;;;;;;3.33;2.00;;;;;;;;5074923;27;45328;-71
2022/05/12 12:38:37;;;;;;;;;2.00;2.00;;;;;;;;5078099;28;45516;-77
2022/05/12 12:41:02;;;;;;;;;1.00;1.00;;;;;;;;5076852;28;45367;-71
2022/05/12 12:43:33;;;;;;;;;3.00;2.00;;;;;;;;5060339;27;45457;-75
2022/05/12 12:46:06;;;;;;;;;1.00;1.00;;;;;;;;5058811;28;45467;-75
2022/05/12 12:48:37;;;;;;;;;2.00;1.00;;;;;;;;5078361;27;45457;-73
2022/05/12 12:51:03;;;;;;;;;1.00;1.00;;;;;;;;5070330;27;47462;-71
2022/05/12 12:56:30;;;;;;;;;1.00;1.00;;;;;;;;5078565;28;45460;-72
2022/05/12 12:58:56;;;;;;;;;1.33;1.33;;;;;;;;5076522;27;45396;-67
2022/05/12 13:01:21;;;;;;;;;1.00;1.00;;;;;;;;5058481;28;45418;-70
2022/05/12 13:03:48;;;;;;;;;3.00;2.00;;;;;;;;5060455;28;46319;-73
2022/05/12 13:06:24;;;;;;;;;3.00;1.00;;;;;;;;5058360;28;45388;-76
2022/05/12 13:08:56;;;;;;;;;3.00;3.00;;;;;;;;5058615;28;45408;-71
2022/05/12 13:11:21;;;;;;;;;1.00;1.00;;;;;;;;5058195;28;46444;-77
2022/05/12 13:13:48;;;;;;;;;1.67;1.67;;;;;;;;5066140;27;45347;-72
2022/05/12 13:16:15;;;;;;;;;3.00;1.00;;;;;;;;5078121;27;45297;-75
2022/05/12 13:18:46;;;;;;;;;1.00;1.00;;;;;;;;5064782;27;45920;-72
2022/05/12 13:21:18;;;;;;;;;2.00;1.33;;;;;;;;5066171;28;46311;-70
2022/05/12 13:23:56;;;;;;;;;1.00;1.00;;;;;;;;5077792;27;46639;-72
2022/05/12 13:26:21;;;;;;;;;3.00;3.00;;;;;;;;5058964;28;45391;-78
2022/05/12 13:28:46;;;;;;;;;3.00;1.00;;;;;;;;5065176;28;45248;-79
2022/05/12 13:31:11;;;;;;;;;1.00;1.00;;;;;;;;5058473;28;46257;-71
2022/05/12 13:33:37;;;;;;;;;2.00;2.00;;;;;;;;5074114;28;45181;-71
2022/05/12 13:36:04;;;;;;;;;2.00;1.00;;;;;;;;5078606;28;45364;-72
2022/05/12 13:38:31;;;;;;;;;4.33;2.00;;;;;;;;5078621;27;45482;-73
2022/05/12 13:41:07;;;;;;;;;1.33;1.00;;;;;;;;5077722;27;46415;-74
2022/05/12 13:43:38;;;;;;;;;2.33;1.00;;;;;;;;5078142;27;45367;-75
2022/05/12 13:46:16;;;;;;;;;1.00;1.00;;;;;;;;5078579;27;45300;-74
2022/05/12 13:49:00;;;;;;;;;1.00;1.00;;;;;;;;5077540;27;45402;-70
2022/05/12 13:51:38;;;;;;;;;3.33;1.33;;;;;;;;5075818;27;46620;-70
2022/05/12 13:54:08;;;;;;;;;2.33;1.00;;;;;;;;5075504;28;45861;-71
2022/05/12 13:56:34;;;;;;;;;1.33;1.33;;;;;;;;5074112;28;45457;-74
2022/05/12 13:59:12;;;;;;;;;0.67;0.67;;;;;;;;5077739;27;45441;-71
2022/05/12 14:01:38;;;;;;;;;1.33;1.33;;;;;;;;5077457;27;48448;-70
2022/05/12 14:04:10;;;;;;;;;1.00;1.00;;;;;;;;5077178;28;45389;-72
2022/05/12 14:06:40;;;;;;;;;3.00;1.00;;;;;;;;5078263;27;45400;-70
2022/05/12 14:09:06;;;;;;;;;1.33;0.33;;;;;;;;5078139;27;45323;-73
2022/05/12 14:11:31;;;;;;;;;3.00;1.33;;;;;;;;5077625;27;45270;-75
2022/05/12 14:19:26;;;;;;;;;1.00;1.00;;;;;;;;5077924;28;45204;-71
2022/05/12 14:21:53;;;;;;;;;1.00;1.00;;;;;;;;5077738;27;46251;-73
2022/05/12 14:24:19;;;;;;;;;2.00;1.00;;;;;;;;5077508;27;45411;-71
2022/05/12 14:26:45;;;;;;;;;2.67;1.67;;;;;;;;5064584;27;45694;-77
2022/05/12 14:29:11;;;;;;;;;2.67;1.00;;;;;;;;5057726;28;45416;-71
2022/05/12 14:31:36;;;;;;;;;1.00;1.00;;;;;;;;5069478;28;46203;-72
2022/05/12 14:34:02;;;;;;;;;0.00;0.00;;;;;;;;5070061;27;45327;-71
2022/05/12 14:36:27;;;;;;;;;1.00;1.00;;;;;;;;5057335;28;45402;-71
2022/05/12 14:38:53;;;;;;;;;2.67;1.00;;;;;;;;5073209;27;45445;-71
2022/05/12 14:41:20;;;;;;;;;1.00;1.00;;;;;;;;5075694;27;46454;-71
2022/05/12 14:43:45;;;;;;;;;1.00;1.00;;;;;;;;5071331;27;45383;-68
2022/05/12 14:46:11;;;;;;;;;1.00;1.00;;;;;;;;5092726;27;45551;-75
2022/05/12 14:48:40;;;;;;;;;1.00;0.00;;;;;;;;5082345;27;45521;-76
2022/05/12 14:51:05;;;;;;;;;1.00;1.00;;;;;;;;5076862;27;47457;-80
2022/05/12 14:53:30;;;;;;;;;1.33;1.33;;;;;;;;5076995;27;45653;-76
2022/05/12 14:55:55;;;;;;;;;1.33;1.00;;;;;;;;5076689;27;45365;-70
2022/05/12 14:58:21;;;;;;;;;1.33;1.00;;;;;;;;5077242;27;45509;-73
2022/05/12 15:00:46;;;;;;;;;1.00;1.00;;;;;;;;5059129;27;45475;-79
2022/05/12 15:03:12;;;;;;;;;2.67;0.67;;;;;;;;5064618;27;45483;-76
2022/05/12 15:05:37;;;;;;;;;2.67;1.00;;;;;;;;5060411;27;45379;-71
2022/05/12 15:08:03;;;;;;;;;1.00;1.00;;;;;;;;5071943;27;45586;-85
2022/05/12 15:10:30;;;;;;;;;1.00;1.00;;;;;;;;5075086;27;45442;-79
2022/05/12 15:12:55;;;;;;;;;3.33;0.33;;;;;;;;5076204;27;45429;-80
2022/05/12 15:15:20;;;;;;;;;4.00;1.00;;;;;;;;5067700;27;45487;-83